sensor_id;sensor_type;location;lat;lon;timestamp;pressure;altitude;pressure_sealevel;temperature;humidity
25080;BME280;13071;48.868;9.996;2023-01-29T00:02:21;97549.78;;;-1.54;91.13
25080;BME280;13071;48.868;9.996;2023-01-29T00:04:48;97558.78;;;-1.55;91.76
25080;BME280;13071;48.868;9.996;2023-01-29T00:07:14;97563.03;;;-1.31;90.54
25080;BME280;13071;48.868;9.996;2023-01-29T00:09:41;97558.19;;;-1.22;89.57
25080;BME280;13071;48.868;9.996;2023-01-29T00:12:07;97544.00;;;-1.39;89.95
25080;BME280;13071;48.868;9.996;2023-01-29T00:14:34;97543.88;;;-1.44;90.33
25080;BME280;13071;48.868;9.996;2023-01-29T00:17:02;97548.38;;;-1.45;89.50
25080;BME280;13071;48.868;9.996;2023-01-29T00:19:28;97550.00;;;-1.20;89.42
25080;BME280;13071;48.868;9.996;2023-01-29T00:21:55;97546.41;;;-1.14;88.75
25080;BME280;13071;48.868;9.996;2023-01-29T00:24:21;97551.84;;;-1.09;88.77
25080;BME280;13071;48.868;9.996;2023-01-29T00:26:48;97555.16;;;-1.02;88.88
25080;BME280;13071;48.868;9.996;2023-01-29T00:29:15;97556.06;;;-0.97;88.75
25080;BME280;13071;48.868;9.996;2023-01-29T00:31:43;97550.88;;;-0.92;88.52
25080;BME280;13071;48.868;9.996;2023-01-29T00:34:11;97553.41;;;-0.85;88.43
25080;BME280;13071;48.868;9.996;2023-01-29T00:36:38;97551.41;;;-0.78;87.87
25080;BME280;13071;48.868;9.996;2023-01-29T00:39:04;97542.19;;;-0.75;87.87
25080;BME280;13071;48.868;9.996;2023-01-29T00:41:35;97540.88;;;-0.73;87.58
25080;BME280;13071;48.868;9.996;2023-01-29T00:44:20;97542.41;;;-0.77;87.37
25080;BME280;13071;48.868;9.996;2023-01-29T00:47:05;97542.50;;;-0.72;87.53
25080;BME280;13071;48.868;9.996;2023-01-29T00:49:54;97556.19;;;-0.92;86.93
25080;BME280;13071;48.868;9.996;2023-01-29T00:52:21;97554.81;;;-1.06;87.60
25080;BME280;13071;48.868;9.996;2023-01-29T00:54:50;97560.84;;;-1.10;87.87
25080;BME280;13071;48.868;9.996;2023-01-29T00:57:17;97556.91;;;-1.08;88.17
25080;BME280;13071;48.868;9.996;2023-01-29T00:59:44;97559.53;;;-0.96;87.61
25080;BME280;13071;48.868;9.996;2023-01-29T01:02:10;97554.25;;;-1.08;86.42
25080;BME280;13071;48.868;9.996;2023-01-29T01:04:56;97558.16;;;-0.99;87.17
25080;BME280;13071;48.868;9.996;2023-01-29T01:07:22;97550.66;;;-1.02;86.88
25080;BME280;13071;48.868;9.996;2023-01-29T01:09:49;97544.19;;;-0.94;86.30
25080;BME280;13071;48.868;9.996;2023-01-29T01:12:33;97537.81;;;-0.93;85.49
25080;BME280;13071;48.868;9.996;2023-01-29T01:15:00;97540.25;;;-0.92;85.92
25080;BME280;13071;48.868;9.996;2023-01-29T01:17:26;97525.81;;;-0.96;86.14
25080;BME280;13071;48.868;9.996;2023-01-29T01:19:53;97528.56;;;-0.91;86.17
25080;BME280;13071;48.868;9.996;2023-01-29T01:22:21;97533.13;;;-1.14;85.99
25080;BME280;13071;48.868;9.996;2023-01-29T01:24:47;97527.50;;;-1.29;86.43
25080;BME280;13071;48.868;9.996;2023-01-29T01:27:14;97521.94;;;-1.40;86.67
25080;BME280;13071;48.868;9.996;2023-01-29T01:29:41;97526.66;;;-1.30;86.30
25080;BME280;13071;48.868;9.996;2023-01-29T01:32:08;97530.25;;;-1.24;86.66
25080;BME280;13071;48.868;9.996;2023-01-29T01:34:34;97528.19;;;-1.34;86.43
25080;BME280;13071;48.868;9.996;2023-01-29T01:37:01;97524.25;;;-1.20;86.41
25080;BME280;13071;48.868;9.996;2023-01-29T01:39:29;97527.72;;;-1.31;87.05
25080;BME280;13071;48.868;9.996;2023-01-29T01:41:55;97525.16;;;-1.38;86.98
25080;BME280;13071;48.868;9.996;2023-01-29T01:44:51;97527.38;;;-1.35;87.21
25080;BME280;13071;48.868;9.996;2023-01-29T01:47:22;97530.03;;;-1.35;88.14
25080;BME280;13071;48.868;9.996;2023-01-29T01:49:50;97533.84;;;-1.19;87.64
25080;BME280;13071;48.868;9.996;2023-01-29T01:52:18;97527.97;;;-1.44;87.52
25080;BME280;13071;48.868;9.996;2023-01-29T01:54:47;97528.88;;;-1.50;87.51
25080;BME280;13071;48.868;9.996;2023-01-29T01:57:17;97525.31;;;-1.44;87.89
25080;BME280;13071;48.868;9.996;2023-01-29T01:59:52;97520.66;;;-1.37;87.06
25080;BME280;13071;48.868;9.996;2023-01-29T02:02:20;97525.06;;;-1.19;85.81
25080;BME280;13071;48.868;9.996;2023-01-29T02:05:05;97519.75;;;-1.31;87.41
25080;BME280;13071;48.868;9.996;2023-01-29T02:07:50;97518.69;;;-1.18;86.54
25080;BME280;13071;48.868;9.996;2023-01-29T02:10:39;97526.31;;;-1.10;86.04
25080;BME280;13071;48.868;9.996;2023-01-29T02:13:06;97532.66;;;-1.23;86.34
25080;BME280;13071;48.868;9.996;2023-01-29T02:15:33;97531.28;;;-1.14;86.15
25080;BME280;13071;48.868;9.996;2023-01-29T02:17:59;97533.09;;;-1.03;86.92
25080;BME280;13071;48.868;9.996;2023-01-29T02:20:28;97542.22;;;-0.99;86.41
25080;BME280;13071;48.868;9.996;2023-01-29T02:23:12;97538.06;;;-1.06;86.83
25080;BME280;13071;48.868;9.996;2023-01-29T02:26:05;97533.13;;;-1.38;88.28
25080;BME280;13071;48.868;9.996;2023-01-29T02:28:38;97539.16;;;-1.31;88.26
25080;BME280;13071;48.868;9.996;2023-01-29T02:31:11;97538.66;;;-1.27;87.85
25080;BME280;13071;48.868;9.996;2023-01-29T02:33:48;97537.16;;;-1.12;87.39
25080;BME280;13071;48.868;9.996;2023-01-29T02:36:26;97531.06;;;-1.36;87.03
25080;BME280;13071;48.868;9.996;2023-01-29T02:39:03;97528.88;;;-1.50;88.04
25080;BME280;13071;48.868;9.996;2023-01-29T02:41:37;97528.19;;;-1.69;89.09
25080;BME280;13071;48.868;9.996;2023-01-29T02:44:16;97540.28;;;-1.38;88.35
25080;BME280;13071;48.868;9.996;2023-01-29T02:46:52;97536.59;;;-1.37;88.32
25080;BME280;13071;48.868;9.996;2023-01-29T02:49:24;97541.31;;;-1.16;87.55
25080;BME280;13071;48.868;9.996;2023-01-29T02:51:58;97542.25;;;-1.10;87.67
25080;BME280;13071;48.868;9.996;2023-01-29T02:54:30;97543.28;;;-1.00;87.53
25080;BME280;13071;48.868;9.996;2023-01-29T02:57:02;97536.16;;;-1.34;87.68
25080;BME280;13071;48.868;9.996;2023-01-29T02:59:34;97535.09;;;-1.21;88.29
25080;BME280;13071;48.868;9.996;2023-01-29T03:02:07;97530.44;;;-1.03;87.29
25080;BME280;13071;48.868;9.996;2023-01-29T03:04:40;97522.13;;;-1.06;86.88
25080;BME280;13071;48.868;9.996;2023-01-29T03:07:13;97517.84;;;-0.96;87.01
25080;BME280;13071;48.868;9.996;2023-01-29T03:10:02;97524.06;;;-0.90;87.48
25080;BME280;13071;48.868;9.996;2023-01-29T03:12:32;97522.88;;;-0.82;86.93
25080;BME280;13071;48.868;9.996;2023-01-29T03:15:08;97521.16;;;-0.89;86.88
25080;BME280;13071;48.868;9.996;2023-01-29T03:17:44;97515.38;;;-0.85;86.55
25080;BME280;13071;48.868;9.996;2023-01-29T03:20:15;97515.94;;;-0.83;85.78
25080;BME280;13071;48.868;9.996;2023-01-29T03:22:46;97508.88;;;-0.78;86.18
25080;BME280;13071;48.868;9.996;2023-01-29T03:25:17;97514.69;;;-0.81;85.84
25080;BME280;13071;48.868;9.996;2023-01-29T03:28:03;97515.81;;;-0.77;86.88
25080;BME280;13071;48.868;9.996;2023-01-29T03:30:53;97523.56;;;-0.75;86.94
25080;BME280;13071;48.868;9.996;2023-01-29T03:33:42;97514.28;;;-0.73;85.93
25080;BME280;13071;48.868;9.996;2023-01-29T03:36:15;97517.06;;;-0.68;83.31
25080;BME280;13071;48.868;9.996;2023-01-29T03:38:43;97521.22;;;-0.72;83.28
25080;BME280;13071;48.868;9.996;2023-01-29T03:41:16;97521.22;;;-0.72;84.42
25080;BME280;13071;48.868;9.996;2023-01-29T03:43:52;97515.69;;;-0.70;84.87
25080;BME280;13071;48.868;9.996;2023-01-29T03:46:25;97525.03;;;-0.68;85.30
25080;BME280;13071;48.868;9.996;2023-01-29T03:48:57;97520.19;;;-0.71;86.04
25080;BME280;13071;48.868;9.996;2023-01-29T03:51:29;97523.50;;;-0.64;85.62
25080;BME280;13071;48.868;9.996;2023-01-29T03:54:04;97529.41;;;-0.62;85.45
25080;BME280;13071;48.868;9.996;2023-01-29T03:56:41;97537.88;;;-0.65;85.13
25080;BME280;13071;48.868;9.996;2023-01-29T03:59:19;97531.25;;;-0.62;85.32
25080;BME280;13071;48.868;9.996;2023-01-29T04:01:52;97531.34;;;-0.85;85.53
25080;BME280;13071;48.868;9.996;2023-01-29T04:04:22;97545.94;;;-1.11;86.10
25080;BME280;13071;48.868;9.996;2023-01-29T04:06:51;97542.25;;;-1.10;86.16
25080;BME280;13071;48.868;9.996;2023-01-29T04:09:24;97539.53;;;-0.99;86.11
25080;BME280;13071;48.868;9.996;2023-01-29T04:12:01;97535.03;;;-0.87;86.01
25080;BME280;13071;48.868;9.996;2023-01-29T04:14:30;97532.97;;;-0.84;86.44
25080;BME280;13071;48.868;9.996;2023-01-29T04:17:00;97543.59;;;-0.96;85.96
25080;BME280;13071;48.868;9.996;2023-01-29T04:19:29;97543.41;;;-1.29;86.44
25080;BME280;13071;48.868;9.996;2023-01-29T04:22:02;97544.69;;;-1.32;86.06
25080;BME280;13071;48.868;9.996;2023-01-29T04:24:30;97542.59;;;-1.18;86.59
25080;BME280;13071;48.868;9.996;2023-01-29T04:27:05;97554.44;;;-0.98;85.23
25080;BME280;13071;48.868;9.996;2023-01-29T04:29:43;97550.38;;;-0.89;85.63
25080;BME280;13071;48.868;9.996;2023-01-29T04:32:19;97551.31;;;-0.83;85.41
25080;BME280;13071;48.868;9.996;2023-01-29T04:34:59;97536.50;;;-0.79;85.49
25080;BME280;13071;48.868;9.996;2023-01-29T04:37:34;97544.63;;;-0.85;85.17
25080;BME280;13071;48.868;9.996;2023-01-29T04:40:09;97540.50;;;-1.16;84.59
25080;BME280;13071;48.868;9.996;2023-01-29T04:42:43;97547.19;;;-1.02;84.52
25080;BME280;13071;48.868;9.996;2023-01-29T04:45:17;97547.88;;;-0.95;83.36
25080;BME280;13071;48.868;9.996;2023-01-29T04:47:52;97540.56;;;-0.88;83.71
25080;BME280;13071;48.868;9.996;2023-01-29T04:50:25;97534.44;;;-0.89;84.63
25080;BME280;13071;48.868;9.996;2023-01-29T04:53:00;97528.53;;;-1.19;82.86
25080;BME280;13071;48.868;9.996;2023-01-29T04:55:35;97530.69;;;-1.16;82.82
25080;BME280;13071;48.868;9.996;2023-01-29T04:58:10;97533.78;;;-0.96;82.40
25080;BME280;13071;48.868;9.996;2023-01-29T05:00:41;97522.13;;;-1.06;81.23
25080;BME280;13071;48.868;9.996;2023-01-29T05:03:11;97536.13;;;-0.99;81.49
25080;BME280;13071;48.868;9.996;2023-01-29T05:05:40;97524.53;;;-0.93;80.38
25080;BME280;13071;48.868;9.996;2023-01-29T05:08:09;97525.44;;;-0.88;80.72
25080;BME280;13071;48.868;9.996;2023-01-29T05:10:37;97522.78;;;-0.88;80.64
25080;BME280;13071;48.868;9.996;2023-01-29T05:13:08;97532.81;;;-0.78;80.93
25080;BME280;13071;48.868;9.996;2023-01-29T05:15:38;97529.91;;;-0.76;80.55
25080;BME280;13071;48.868;9.996;2023-01-29T05:18:05;97539.97;;;-0.78;80.85
25080;BME280;13071;48.868;9.996;2023-01-29T05:20:36;97543.53;;;-0.73;80.94
25080;BME280;13071;48.868;9.996;2023-01-29T05:23:04;97536.59;;;-0.74;80.76
25080;BME280;13071;48.868;9.996;2023-01-29T05:25:31;97538.22;;;-0.73;80.77
25080;BME280;13071;48.868;9.996;2023-01-29T05:27:58;97539.75;;;-0.77;81.38
25080;BME280;13071;48.868;9.996;2023-01-29T05:30:34;97537.09;;;-0.77;81.09
25080;BME280;13071;48.868;9.996;2023-01-29T05:33:02;97535.13;;;-0.70;81.22
25080;BME280;13071;48.868;9.996;2023-01-29T05:35:29;97541.13;;;-0.74;81.37
25080;BME280;13071;48.868;9.996;2023-01-29T05:37:57;97542.50;;;-0.72;81.20
25080;BME280;13071;48.868;9.996;2023-01-29T05:40:24;97548.91;;;-0.84;81.15
25080;BME280;13071;48.868;9.996;2023-01-29T05:42:50;97541.34;;;-0.64;79.35
25080;BME280;13071;48.868;9.996;2023-01-29T05:45:17;97535.72;;;-0.79;79.15
25080;BME280;13071;48.868;9.996;2023-01-29T05:47:44;97536.88;;;-0.99;80.24
25080;BME280;13071;48.868;9.996;2023-01-29T05:50:11;97537.41;;;-1.25;80.53
25080;BME280;13071;48.868;9.996;2023-01-29T05:52:38;97526.66;;;-1.42;81.36
25080;BME280;13071;48.868;9.996;2023-01-29T05:55:08;97518.22;;;-1.27;81.29
25080;BME280;13071;48.868;9.996;2023-01-29T05:57:35;97517.19;;;-1.14;80.90
25080;BME280;13071;48.868;9.996;2023-01-29T06:00:03;97504.34;;;-1.06;80.61
25080;BME280;13071;48.868;9.996;2023-01-29T06:02:30;97492.88;;;-0.95;80.66
25080;BME280;13071;48.868;9.996;2023-01-29T06:04:56;97490.41;;;-1.24;81.69
25080;BME280;13071;48.868;9.996;2023-01-29T06:07:23;97480.09;;;-1.09;81.73
25080;BME280;13071;48.868;9.996;2023-01-29T06:09:49;97477.47;;;-1.21;82.37
25080;BME280;13071;48.868;9.996;2023-01-29T06:12:17;97477.25;;;-0.79;81.80
25080;BME280;13071;48.868;9.996;2023-01-29T06:14:44;97478.88;;;-0.90;81.17
25080;BME280;13071;48.868;9.996;2023-01-29T06:17:10;97477.28;;;-0.91;81.11
25080;BME280;13071;48.868;9.996;2023-01-29T06:19:37;97479.13;;;-1.03;81.23
25080;BME280;13071;48.868;9.996;2023-01-29T06:22:04;97479.63;;;-1.06;81.97
25080;BME280;13071;48.868;9.996;2023-01-29T06:24:31;97473.13;;;-0.99;82.16
25080;BME280;13071;48.868;9.996;2023-01-29T06:26:57;97489.56;;;-0.73;82.12
25080;BME280;13071;48.868;9.996;2023-01-29T06:29:25;97496.59;;;-0.67;81.21
25080;BME280;13071;48.868;9.996;2023-01-29T06:31:52;97495.53;;;-0.95;81.23
25080;BME280;13071;48.868;9.996;2023-01-29T06:34:18;97501.22;;;-1.03;81.04
25080;BME280;13071;48.868;9.996;2023-01-29T06:36:45;97513.13;;;-1.05;82.53
25080;BME280;13071;48.868;9.996;2023-01-29T06:39:12;97512.03;;;-0.93;81.91
25080;BME280;13071;48.868;9.996;2023-01-29T06:41:38;97509.50;;;-0.88;82.14
25080;BME280;13071;48.868;9.996;2023-01-29T06:44:05;97506.94;;;-0.82;81.70
25080;BME280;13071;48.868;9.996;2023-01-29T06:46:33;97512.72;;;-0.85;82.42
25080;BME280;13071;48.868;9.996;2023-01-29T06:48:59;97508.31;;;-0.80;82.78
25080;BME280;13071;48.868;9.996;2023-01-29T06:51:26;97514.78;;;-0.76;82.84
25080;BME280;13071;48.868;9.996;2023-01-29T06:53:52;97509.56;;;-0.71;82.93
25080;BME280;13071;48.868;9.996;2023-01-29T06:56:20;97524.47;;;-0.70;82.21
25080;BME280;13071;48.868;9.996;2023-01-29T06:58:47;97520.09;;;-0.76;82.89
25080;BME280;13071;48.868;9.996;2023-01-29T07:01:13;97525.13;;;-0.63;81.90
25080;BME280;13071;48.868;9.996;2023-01-29T07:03:41;97526.94;;;-0.80;81.69
25080;BME280;13071;48.868;9.996;2023-01-29T07:06:08;97526.69;;;-0.78;82.29
25080;BME280;13071;48.868;9.996;2023-01-29T07:08:36;97535.56;;;-0.73;82.34
25080;BME280;13071;48.868;9.996;2023-01-29T07:11:03;97533.94;;;-0.74;81.97
25080;BME280;13071;48.868;9.996;2023-01-29T07:13:30;97525.63;;;-0.66;81.57
25080;BME280;13071;48.868;9.996;2023-01-29T07:15:57;97533.50;;;-0.82;81.63
25080;BME280;13071;48.868;9.996;2023-01-29T07:18:23;97538.34;;;-1.19;83.10
25080;BME280;13071;48.868;9.996;2023-01-29T07:20:51;97536.66;;;-0.97;82.84
25080;BME280;13071;48.868;9.996;2023-01-29T07:23:18;97535.03;;;-0.87;82.00
25080;BME280;13071;48.868;9.996;2023-01-29T07:25:45;97537.09;;;-0.77;81.84
25080;BME280;13071;48.868;9.996;2023-01-29T07:28:14;97538.47;;;-0.74;81.90
25080;BME280;13071;48.868;9.996;2023-01-29T07:30:40;97535.00;;;-0.75;81.57
25080;BME280;13071;48.868;9.996;2023-01-29T07:33:08;97539.84;;;-0.72;81.77
25080;BME280;13071;48.868;9.996;2023-01-29T07:35:37;97535.75;;;-0.51;81.10
25080;BME280;13071;48.868;9.996;2023-01-29T07:38:05;97536.84;;;-0.75;80.78
25080;BME280;13071;48.868;9.996;2023-01-29T07:40:32;97537.78;;;-0.70;81.28
25080;BME280;13071;48.868;9.996;2023-01-29T07:42:59;97532.44;;;-0.70;81.13
25080;BME280;13071;48.868;9.996;2023-01-29T07:45:27;97542.81;;;-0.57;80.67
25080;BME280;13071;48.868;9.996;2023-01-29T07:47:54;97546.19;;;-0.61;80.68
25080;BME280;13071;48.868;9.996;2023-01-29T07:50:21;97554.69;;;-0.59;80.76
25080;BME280;13071;48.868;9.996;2023-01-29T07:52:47;97547.22;;;-0.62;81.08
25080;BME280;13071;48.868;9.996;2023-01-29T07:55:16;97559.69;;;-0.63;79.30
25080;BME280;13071;48.868;9.996;2023-01-29T07:57:42;97548.41;;;-0.81;79.36
25080;BME280;13071;48.868;9.996;2023-01-29T08:00:10;97562.09;;;-0.90;79.76
25080;BME280;13071;48.868;9.996;2023-01-29T08:02:38;97556.06;;;-0.97;79.63
25080;BME280;13071;48.868;9.996;2023-01-29T08:05:04;97555.91;;;-0.78;80.15
25080;BME280;13071;48.868;9.996;2023-01-29T08:07:31;97561.94;;;-0.83;80.43
25080;BME280;13071;48.868;9.996;2023-01-29T08:09:59;97555.09;;;-1.19;81.80
25080;BME280;13071;48.868;9.996;2023-01-29T08:12:27;97558.22;;;-0.70;81.04
25080;BME280;13071;48.868;9.996;2023-01-29T08:14:53;97549.66;;;-0.72;80.71
25080;BME280;13071;48.868;9.996;2023-01-29T08:17:20;97551.38;;;-0.66;80.55
25080;BME280;13071;48.868;9.996;2023-01-29T08:19:47;97549.31;;;-0.64;80.35
25080;BME280;13071;48.868;9.996;2023-01-29T08:22:14;97549.75;;;-0.56;80.20
25080;BME280;13071;48.868;9.996;2023-01-29T08:24:41;97558.97;;;-0.47;79.83
25080;BME280;13071;48.868;9.996;2023-01-29T08:27:08;97560.00;;;-0.48;79.53
25080;BME280;13071;48.868;9.996;2023-01-29T08:29:36;97567.88;;;-0.53;79.65
25080;BME280;13071;48.868;9.996;2023-01-29T08:32:03;97562.13;;;-0.61;79.78
25080;BME280;13071;48.868;9.996;2023-01-29T08:34:29;97562.00;;;-0.55;80.11
25080;BME280;13071;48.868;9.996;2023-01-29T08:36:56;97571.66;;;-0.49;80.07
25080;BME280;13071;48.868;9.996;2023-01-29T08:39:22;97574.09;;;-0.47;79.76
25080;BME280;13071;48.868;9.996;2023-01-29T08:41:49;97582.84;;;-0.35;78.23
25080;BME280;13071;48.868;9.996;2023-01-29T08:44:15;97581.59;;;-0.44;78.75
25080;BME280;13071;48.868;9.996;2023-01-29T08:46:43;97584.03;;;-0.43;78.37
25080;BME280;13071;48.868;9.996;2023-01-29T08:49:10;97594.13;;;-0.45;78.18
25080;BME280;13071;48.868;9.996;2023-01-29T08:51:36;97585.97;;;-0.38;78.28
25080;BME280;13071;48.868;9.996;2023-01-29T08:54:03;97592.09;;;-0.77;78.17
25080;BME280;13071;48.868;9.996;2023-01-29T08:56:30;97601.09;;;-0.67;78.02
25080;BME280;13071;48.868;9.996;2023-01-29T08:58:56;97601.38;;;-0.92;79.67
25080;BME280;13071;48.868;9.996;2023-01-29T09:01:23;97600.00;;;-0.94;79.77
25080;BME280;13071;48.868;9.996;2023-01-29T09:03:50;97595.94;;;-1.08;79.66
25080;BME280;13071;48.868;9.996;2023-01-29T09:06:17;97602.09;;;-1.19;79.28
25080;BME280;13071;48.868;9.996;2023-01-29T09:08:44;97602.28;;;-0.98;80.34
25080;BME280;13071;48.868;9.996;2023-01-29T09:11:10;97593.88;;;-0.95;79.42
25080;BME280;13071;48.868;9.996;2023-01-29T09:13:37;97598.00;;;-0.75;79.17
25080;BME280;13071;48.868;9.996;2023-01-29T09:16:04;97602.16;;;-0.79;78.90
25080;BME280;13071;48.868;9.996;2023-01-29T09:18:31;97607.97;;;-0.54;78.65
25080;BME280;13071;48.868;9.996;2023-01-29T09:20:58;97608.50;;;-0.29;78.53
25080;BME280;13071;48.868;9.996;2023-01-29T09:23:27;97602.09;;;-0.16;78.16
25080;BME280;13071;48.868;9.996;2023-01-29T09:25:54;97598.69;;;0.00;78.02
25080;BME280;13071;48.868;9.996;2023-01-29T09:28:20;97603.47;;;0.15;76.56
25080;BME280;13071;48.868;9.996;2023-01-29T09:30:47;97595.56;;;0.20;76.36
25080;BME280;13071;48.868;9.996;2023-01-29T09:33:14;97600.41;;;0.23;75.38
25080;BME280;13071;48.868;9.996;2023-01-29T09:35:41;97604.88;;;0.06;75.10
25080;BME280;13071;48.868;9.996;2023-01-29T09:38:09;97604.41;;;-0.20;76.24
25080;BME280;13071;48.868;9.996;2023-01-29T09:40:54;97589.19;;;0.21;75.86
25080;BME280;13071;48.868;9.996;2023-01-29T09:43:26;97596.63;;;0.35;75.30
25080;BME280;13071;48.868;9.996;2023-01-29T09:45:59;97597.47;;;0.08;75.23
25080;BME280;13071;48.868;9.996;2023-01-29T09:48:30;97598.16;;;0.15;75.56
25080;BME280;13071;48.868;9.996;2023-01-29T09:51:02;97592.34;;;0.34;74.83
25080;BME280;13071;48.868;9.996;2023-01-29T09:53:34;97593.72;;;0.37;74.98
25080;BME280;13071;48.868;9.996;2023-01-29T09:56:09;97583.09;;;0.54;73.90
25080;BME280;13071;48.868;9.996;2023-01-29T09:58:39;97579.09;;;0.23;74.65
25080;BME280;13071;48.868;9.996;2023-01-29T10:01:12;97567.41;;;0.40;74.65
25080;BME280;13071;48.868;9.996;2023-01-29T10:03:56;97559.03;;;0.49;74.53
25080;BME280;13071;48.868;9.996;2023-01-29T10:06:39;97552.63;;;0.66;73.82
25080;BME280;13071;48.868;9.996;2023-01-29T10:12:28;97547.53;;;0.65;74.82
25080;BME280;13071;48.868;9.996;2023-01-29T10:15:04;97542.44;;;0.80;73.00
25080;BME280;13071;48.868;9.996;2023-01-29T10:17:48;97540.16;;;0.89;73.29
25080;BME280;13071;48.868;9.996;2023-01-29T10:20:28;97535.25;;;0.80;73.31
25080;BME280;13071;48.868;9.996;2023-01-29T10:23:06;97529.75;;;0.87;74.14
25080;BME280;13071;48.868;9.996;2023-01-29T10:25:40;97524.06;;;0.62;76.60
25080;BME280;13071;48.868;9.996;2023-01-29T10:28:16;97518.34;;;0.92;75.03
25080;BME280;13071;48.868;9.996;2023-01-29T10:30:47;97519.28;;;1.02;74.32
25080;BME280;13071;48.868;9.996;2023-01-29T10:33:18;97521.88;;;1.19;73.99
25080;BME280;13071;48.868;9.996;2023-01-29T10:35:49;97527.16;;;0.54;74.90
25080;BME280;13071;48.868;9.996;2023-01-29T10:38:24;97530.09;;;0.74;73.13
25080;BME280;13071;48.868;9.996;2023-01-29T10:40:59;97528.66;;;0.50;76.08
25080;BME280;13071;48.868;9.996;2023-01-29T10:43:37;97526.88;;;0.72;74.52
25080;BME280;13071;48.868;9.996;2023-01-29T10:46:14;97522.28;;;0.51;75.30
25080;BME280;13071;48.868;9.996;2023-01-29T10:48:59;97532.13;;;0.67;75.40
25080;BME280;13071;48.868;9.996;2023-01-29T10:51:41;97534.41;;;0.97;74.74
25080;BME280;13071;48.868;9.996;2023-01-29T10:54:22;97528.84;;;0.98;74.69
25080;BME280;13071;48.868;9.996;2023-01-29T10:57:00;97526.03;;;1.10;73.83
25080;BME280;13071;48.868;9.996;2023-01-29T10:59:43;97523.69;;;0.92;75.08
25080;BME280;13071;48.868;9.996;2023-01-29T11:02:15;97518.59;;;1.12;74.67
25080;BME280;13071;48.868;9.996;2023-01-29T11:04:44;97516.44;;;0.70;74.79
25080;BME280;13071;48.868;9.996;2023-01-29T11:07:11;97516.34;;;0.82;76.02
25080;BME280;13071;48.868;9.996;2023-01-29T11:09:43;97519.44;;;0.74;75.75
25080;BME280;13071;48.868;9.996;2023-01-29T11:12:13;97523.84;;;0.85;75.48
25080;BME280;13071;48.868;9.996;2023-01-29T11:14:44;97518.31;;;1.08;75.23
25080;BME280;13071;48.868;9.996;2023-01-29T11:17:15;97522.03;;;0.69;75.68
25080;BME280;13071;48.868;9.996;2023-01-29T11:19:43;97514.56;;;0.88;76.22
25080;BME280;13071;48.868;9.996;2023-01-29T11:22:13;97514.22;;;0.46;76.73
25080;BME280;13071;48.868;9.996;2023-01-29T11:24:39;97514.44;;;0.77;76.52
25080;BME280;13071;48.868;9.996;2023-01-29T11:27:13;97509.16;;;1.04;76.07
25080;BME280;13071;48.868;9.996;2023-01-29T11:29:43;97503.63;;;0.89;75.84
25080;BME280;13071;48.868;9.996;2023-01-29T11:32:13;97496.66;;;1.05;75.00
25080;BME280;13071;48.868;9.996;2023-01-29T11:34:57;97495.59;;;1.06;75.68
25080;BME280;13071;48.868;9.996;2023-01-29T11:37:32;97496.72;;;1.32;74.26
25080;BME280;13071;48.868;9.996;2023-01-29T11:39:59;97500.44;;;1.30;73.56
25080;BME280;13071;48.868;9.996;2023-01-29T11:42:29;97502.63;;;1.39;73.89
25080;BME280;13071;48.868;9.996;2023-01-29T11:44:58;97484.00;;;1.17;73.23
25080;BME280;13071;48.868;9.996;2023-01-29T11:47:26;97480.22;;;1.13;73.29
25080;BME280;13071;48.868;9.996;2023-01-29T11:49:54;97483.38;;;1.10;74.13
25080;BME280;13071;48.868;9.996;2023-01-29T11:52:23;97485.72;;;0.63;74.94
25080;BME280;13071;48.868;9.996;2023-01-29T11:54:53;97476.63;;;1.02;74.52
25080;BME280;13071;48.868;9.996;2023-01-29T11:57:27;97468.38;;;1.25;74.15
25080;BME280;13071;48.868;9.996;2023-01-29T11:59:58;97465.81;;;1.36;74.64
25080;BME280;13071;48.868;9.996;2023-01-29T12:02:30;97460.81;;;0.96;77.33
25080;BME280;13071;48.868;9.996;2023-01-29T12:05:03;97460.38;;;1.25;76.39
25080;BME280;13071;48.868;9.996;2023-01-29T12:07:31;97448.47;;;1.33;75.70
25080;BME280;13071;48.868;9.996;2023-01-29T12:09:59;97435.66;;;1.35;75.17
25080;BME280;13071;48.868;9.996;2023-01-29T12:12:35;97425.13;;;1.23;74.95
25080;BME280;13071;48.868;9.996;2023-01-29T12:15:20;97424.66;;;1.26;76.01
25080;BME280;13071;48.868;9.996;2023-01-29T12:18:00;97417.66;;;1.47;75.27
25080;BME280;13071;48.868;9.996;2023-01-29T12:20:33;97402.72;;;1.46;75.28
25080;BME280;13071;48.868;9.996;2023-01-29T12:23:05;97408.44;;;1.60;74.85
25080;BME280;13071;48.868;9.996;2023-01-29T12:25:42;97402.28;;;1.59;74.65
25080;BME280;13071;48.868;9.996;2023-01-29T12:28:21;97396.66;;;1.56;75.26
25080;BME280;13071;48.868;9.996;2023-01-29T12:31:00;97390.84;;;1.64;74.96
25080;BME280;13071;48.868;9.996;2023-01-29T12:33:38;97391.91;;;1.63;74.93
25080;BME280;13071;48.868;9.996;2023-01-29T12:36:12;97377.81;;;1.67;74.79
25080;BME280;13071;48.868;9.996;2023-01-29T12:38:39;97382.34;;;1.67;74.22
25080;BME280;13071;48.868;9.996;2023-01-29T12:41:23;97369.34;;;1.76;74.51
25080;BME280;13071;48.868;9.996;2023-01-29T12:43:53;97376.34;;;1.82;72.42
25080;BME280;13071;48.868;9.996;2023-01-29T12:46:26;97378.50;;;1.53;72.94
25080;BME280;13071;48.868;9.996;2023-01-29T12:48:55;97371.38;;;1.63;72.72
25080;BME280;13071;48.868;9.996;2023-01-29T12:51:28;97368.69;;;1.63;72.33
25080;BME280;13071;48.868;9.996;2023-01-29T12:53:58;97363.84;;;1.28;74.18
25080;BME280;13071;48.868;9.996;2023-01-29T12:56:30;97369.38;;;1.49;73.52
25080;BME280;13071;48.868;9.996;2023-01-29T12:58:59;97353.81;;;1.67;72.87
25080;BME280;13071;48.868;9.996;2023-01-29T13:01:32;97354.31;;;1.64;73.52
25080;BME280;13071;48.868;9.996;2023-01-29T13:04:02;97355.88;;;1.60;74.36
25080;BME280;13071;48.868;9.996;2023-01-29T13:06:35;97349.69;;;1.55;75.10
25080;BME280;13071;48.868;9.996;2023-01-29T13:09:08;97351.34;;;1.61;74.40
25080;BME280;13071;48.868;9.996;2023-01-29T13:11:40;97348.47;;;1.67;73.21
25080;BME280;13071;48.868;9.996;2023-01-29T13:14:13;97348.34;;;1.52;72.57
25080;BME280;13071;48.868;9.996;2023-01-29T13:16:48;97352.28;;;1.45;72.70
25080;BME280;13071;48.868;9.996;2023-01-29T13:19:21;97355.69;;;1.40;73.11
25080;BME280;13071;48.868;9.996;2023-01-29T13:21:53;97358.94;;;1.42;73.13
25080;BME280;13071;48.868;9.996;2023-01-29T13:24:22;97361.72;;;1.57;72.84
25080;BME280;13071;48.868;9.996;2023-01-29T13:26:50;97345.41;;;1.54;72.92